createdAt,value
2023-01-09T00:01:41.938Z,97477.92
2023-01-09T00:04:09.552Z,97466.63
2023-01-09T00:06:37.403Z,97464.65
2023-01-09T00:09:04.727Z,97463.54
2023-01-09T00:11:31.687Z,97465.38
2023-01-09T00:13:59.406Z,97469.11
2023-01-09T00:16:26.650Z,97469.75
2023-01-09T00:18:54.209Z,97472.02
2023-01-09T00:21:21.205Z,97475.67
2023-01-09T00:23:48.163Z,97473.92
2023-01-09T00:26:18.161Z,97474.61
2023-01-09T00:28:46.965Z,97473.20
2023-01-09T00:31:14.603Z,97473.64
2023-01-09T00:34:03.234Z,97466.09
2023-01-09T00:36:30.205Z,97457.61
2023-01-09T00:38:57.847Z,97457.23
2023-01-09T00:41:31.795Z,97450.73
2023-01-09T00:44:04.913Z,97453.13
2023-01-09T00:46:35.871Z,97454.58
2023-01-09T00:49:05.684Z,97457.18
2023-01-09T00:51:32.647Z,97457.22
2023-01-09T00:54:00.083Z,97460.76
2023-01-09T00:56:27.050Z,97460.48
2023-01-09T00:58:54.925Z,97445.95
2023-01-09T01:01:22.333Z,97436.64
2023-01-09T01:03:49.278Z,97440.45
2023-01-09T01:06:34.965Z,97443.13
2023-01-09T01:09:01.905Z,97440.42
2023-01-09T01:11:29.073Z,97439.05
2023-01-09T01:13:56.522Z,97451.45
2023-01-09T01:16:23.498Z,97448.54
2023-01-09T01:18:51.045Z,97447.11
2023-01-09T01:21:18.483Z,97456.20
2023-01-09T01:23:45.643Z,97452.63
2023-01-09T01:26:15.439Z,97448.71
2023-01-09T01:28:43.603Z,97432.34
2023-01-09T01:31:17.982Z,97426.83
2023-01-09T01:33:45.175Z,97437.40
2023-01-09T01:36:12.446Z,97428.80
2023-01-09T01:38:39.682Z,97426.45
2023-01-09T01:41:07.646Z,97429.94
2023-01-09T01:43:52.682Z,97427.24
2023-01-09T01:46:19.589Z,97425.07
2023-01-09T01:48:48.762Z,97439.38
2023-01-09T01:51:18.627Z,97440.91
2023-01-09T01:53:51.957Z,97442.13
2023-01-09T01:56:25.682Z,97435.27
2023-01-09T01:59:08.483Z,97431.52
2023-01-09T02:01:41.236Z,97428.87
2023-01-09T02:04:09.004Z,97431.92
2023-01-09T02:06:37.838Z,97428.36
2023-01-09T02:09:06.585Z,97434.46
2023-01-09T02:11:34.641Z,97436.23
2023-01-09T02:14:02.917Z,97432.41
2023-01-09T02:16:48.274Z,97435.16
2023-01-09T02:19:24.450Z,97427.10
2023-01-09T02:21:51.282Z,97418.77
2023-01-09T02:24:57.044Z,97410.88
2023-01-09T02:27:37.281Z,97391.05
2023-01-09T02:30:16.243Z,97383.04
2023-01-09T02:32:59.016Z,97374.80
2023-01-09T02:35:34.971Z,97370.34
2023-01-09T02:38:15.949Z,97365.20
2023-01-09T02:40:53.968Z,97367.97
2023-01-09T02:43:21.506Z,97374.62
2023-01-09T02:45:48.745Z,97377.46
2023-01-09T02:48:15.946Z,97373.31
2023-01-09T02:51:01.721Z,97371.20
2023-01-09T02:53:45.444Z,97365.55
2023-01-09T02:56:41.859Z,97370.23
2023-01-09T02:59:28.684Z,97365.50
2023-01-09T03:02:07.877Z,97355.06
2023-01-09T03:04:48.148Z,97353.14
2023-01-09T03:07:31.575Z,97349.15
2023-01-09T03:10:09.403Z,97338.40
2023-01-09T03:12:38.531Z,97324.77
2023-01-09T03:15:10.928Z,97319.58
2023-01-09T03:17:43.734Z,97309.94
2023-01-09T03:20:21.453Z,97308.86
2023-01-09T03:22:56.633Z,97312.14
2023-01-09T03:25:28.412Z,97310.55
2023-01-09T03:28:10.324Z,97306.43
2023-01-09T03:30:44.375Z,97307.38
2023-01-09T03:33:17.298Z,97304.50
2023-01-09T03:35:51.175Z,97300.46
2023-01-09T03:38:18.069Z,97302.44
2023-01-09T03:40:45.071Z,97297.27
2023-01-09T03:43:12.381Z,97289.02
2023-01-09T03:45:39.330Z,97281.98
2023-01-09T03:48:06.879Z,97278.39
2023-01-09T03:50:33.900Z,97276.17
2023-01-09T03:53:00.860Z,97272.98
2023-01-09T03:55:27.863Z,97281.88
2023-01-09T03:57:54.941Z,97277.10
2023-01-09T04:00:22.886Z,97273.58
2023-01-09T04:02:49.920Z,97274.42
2023-01-09T04:05:17.171Z,97264.21
2023-01-09T04:07:44.114Z,97248.98
2023-01-09T04:10:11.429Z,97242.34
2023-01-09T04:12:38.945Z,97236.41
2023-01-09T04:15:06.685Z,97238.69
2023-01-09T04:17:33.725Z,97229.85
2023-01-09T04:20:00.777Z,97220.70
2023-01-09T04:22:27.823Z,97217.05
2023-01-09T04:24:57.247Z,97214.53
2023-01-09T04:27:27.969Z,97213.67
2023-01-09T04:29:54.908Z,97209.48
2023-01-09T04:32:22.183Z,97204.66
2023-01-09T04:34:49.429Z,97196.70
2023-01-09T04:37:16.462Z,97192.16
2023-01-09T04:39:46.557Z,97190.10
2023-01-09T04:42:13.503Z,97192.47
2023-01-09T04:44:40.680Z,97192.96
2023-01-09T04:47:07.589Z,97192.67
2023-01-09T04:49:34.428Z,97186.51
2023-01-09T04:52:01.376Z,97186.02
2023-01-09T04:54:28.215Z,97181.36
2023-01-09T04:56:55.274Z,97180.09
2023-01-09T04:59:22.302Z,97179.98
2023-01-09T05:01:49.388Z,97173.09
2023-01-09T05:04:16.523Z,97167.02
2023-01-09T05:06:43.544Z,97163.94
2023-01-09T05:09:10.512Z,97158.75
2023-01-09T05:11:37.444Z,97156.17
2023-01-09T05:14:04.384Z,97150.08
2023-01-09T05:16:32.477Z,97147.24
2023-01-09T05:19:00.822Z,97147.57
2023-01-09T05:21:28.171Z,97151.64
2023-01-09T05:23:55.003Z,97143.48
2023-01-09T05:26:26.313Z,97145.33
2023-01-09T05:28:56.782Z,97140.05
2023-01-09T05:31:25.897Z,97135.82
2023-01-09T05:33:53.746Z,97133.17
2023-01-09T05:36:20.596Z,97134.89
2023-01-09T05:38:47.625Z,97131.94
2023-01-09T05:41:14.460Z,97132.91
2023-01-09T05:43:41.605Z,97133.62
2023-01-09T05:46:08.696Z,97137.86
2023-01-09T05:48:35.624Z,97135.45
2023-01-09T05:51:02.662Z,97131.67
2023-01-09T05:53:29.483Z,97134.71
2023-01-09T05:55:56.319Z,97134.05
2023-01-09T05:58:23.265Z,97135.08
2023-01-09T06:00:50.310Z,97131.29
2023-01-09T06:03:17.287Z,97127.22
2023-01-09T06:05:44.743Z,97126.80
2023-01-09T06:08:11.789Z,97129.34
2023-01-09T06:10:38.902Z,97125.73
2023-01-09T06:13:06.064Z,97129.39
2023-01-09T06:15:33.084Z,97128.21
2023-01-09T06:18:00.064Z,97123.90
2023-01-09T06:20:27.496Z,97126.33
2023-01-09T06:22:54.424Z,97123.38
2023-01-09T06:25:21.402Z,97125.60
2023-01-09T06:27:49.586Z,97123.73
2023-01-09T06:30:18.748Z,97123.52
2023-01-09T06:32:49.250Z,97125.23
2023-01-09T06:35:21.129Z,97124.60
2023-01-09T06:37:51.495Z,97125.08
2023-01-09T06:40:21.888Z,97121.91
2023-01-09T06:42:50.486Z,97124.52
2023-01-09T06:45:18.102Z,97122.55
2023-01-09T06:47:45.471Z,97126.39
2023-01-09T06:50:12.968Z,97126.71
2023-01-09T06:52:40.404Z,97131.37
2023-01-09T06:55:08.783Z,97131.59
2023-01-09T06:57:35.732Z,97138.42
2023-01-09T07:00:04.138Z,97140.19
2023-01-09T07:02:31.043Z,97143.34
2023-01-09T07:04:57.910Z,97141.34
2023-01-09T07:07:24.850Z,97143.52
2023-01-09T07:09:52.391Z,97142.80
2023-01-09T07:12:19.347Z,97149.55
2023-01-09T07:14:46.456Z,97148.60
2023-01-09T07:17:14.001Z,97152.21
2023-01-09T07:19:41.251Z,97153.96
2023-01-09T07:22:08.872Z,97151.50
2023-01-09T07:24:35.809Z,97152.23
2023-01-09T07:27:03.198Z,97152.03
2023-01-09T07:29:30.892Z,97152.38
2023-01-09T07:31:58.000Z,97152.80
2023-01-09T07:34:24.848Z,97145.87
2023-01-09T07:36:52.141Z,97144.04
2023-01-09T07:39:19.008Z,97142.20
2023-01-09T07:41:46.479Z,97137.52
2023-01-09T07:44:14.717Z,97137.91
2023-01-09T07:46:42.287Z,97138.39
2023-01-09T07:49:10.059Z,97141.91
2023-01-09T07:51:39.726Z,97137.95
2023-01-09T07:54:07.489Z,97129.38
2023-01-09T07:56:34.767Z,97124.04
2023-01-09T07:59:02.063Z,97124.05
2023-01-09T08:01:29.761Z,97124.56
2023-01-09T08:03:57.328Z,97121.06
2023-01-09T08:06:24.527Z,97115.43
2023-01-09T08:08:51.734Z,97112.20
2023-01-09T08:11:18.703Z,97108.83
2023-01-09T08:13:45.572Z,97107.96
2023-01-09T08:16:12.587Z,97107.57
2023-01-09T08:18:39.575Z,97108.95
2023-01-09T08:21:07.241Z,97108.17
2023-01-09T08:23:34.653Z,97106.24
2023-01-09T08:26:01.711Z,97106.29
2023-01-09T08:28:29.093Z,97109.23
2023-01-09T08:30:56.397Z,97107.97
2023-01-09T08:33:23.609Z,97103.08
2023-01-09T08:35:50.567Z,97103.11
2023-01-09T08:38:17.792Z,97103.38
2023-01-09T08:40:47.429Z,97106.09
2023-01-09T08:43:33.587Z,97103.25
2023-01-09T08:46:20.316Z,97099.59
2023-01-09T08:48:50.486Z,97100.53
2023-01-09T08:51:17.433Z,97100.11
2023-01-09T08:53:44.457Z,97102.05
2023-01-09T08:56:11.350Z,97105.77
2023-01-09T08:58:38.303Z,97112.09
2023-01-09T09:01:07.132Z,97110.68
2023-01-09T09:03:34.069Z,97108.64
2023-01-09T09:06:01.097Z,97108.86
2023-01-09T09:08:28.005Z,97104.41
2023-01-09T09:10:54.949Z,97105.36
2023-01-09T09:13:21.805Z,97102.39
2023-01-09T09:15:48.841Z,97105.19
2023-01-09T09:18:15.967Z,97109.39
2023-01-09T09:20:43.300Z,97114.16
2023-01-09T09:23:10.857Z,97113.54
2023-01-09T09:25:38.940Z,97107.42
2023-01-09T09:28:07.022Z,97106.61
2023-01-09T09:30:34.645Z,97102.41
2023-01-09T09:33:05.118Z,97101.27
2023-01-09T09:35:34.213Z,97104.50
2023-01-09T09:38:05.336Z,97099.54
2023-01-09T09:40:52.048Z,97101.41
2023-01-09T09:44:06.367Z,97103.73
2023-01-09T09:47:12.420Z,97103.52
2023-01-09T09:50:14.852Z,97100.20
2023-01-09T09:53:10.821Z,97099.98
2023-01-09T09:55:40.645Z,97098.23
2023-01-09T09:58:38.807Z,97094.20
2023-01-09T10:01:08.408Z,97095.95
2023-01-09T10:03:49.834Z,97091.09
2023-01-09T10:07:10.142Z,97095.02
2023-01-09T10:09:59.248Z,97093.93
2023-01-09T10:12:45.649Z,97094.29
2023-01-09T10:15:30.510Z,97092.42
2023-01-09T10:18:27.074Z,97090.98
2023-01-09T10:21:02.396Z,97090.31
2023-01-09T10:23:51.134Z,97086.09
2023-01-09T10:26:30.004Z,97084.41
2023-01-09T10:29:22.461Z,97085.54
2023-01-09T10:31:53.412Z,97089.69
2023-01-09T10:34:39.620Z,97089.64
2023-01-09T10:37:06.725Z,97087.39
2023-01-09T10:39:48.477Z,97088.91
2023-01-09T10:42:53.624Z,97088.29
2023-01-09T10:45:20.641Z,97083.90
2023-01-09T10:47:49.978Z,97083.42
2023-01-09T10:50:23.490Z,97083.32
2023-01-09T10:52:53.742Z,97083.91
2023-01-09T10:56:00.032Z,97078.67
2023-01-09T10:58:27.731Z,97080.81
2023-01-09T11:00:57.287Z,97080.42
2023-01-09T11:03:28.596Z,97082.44
2023-01-09T11:05:58.802Z,97084.45
2023-01-09T11:08:42.373Z,97081.52
2023-01-09T11:11:11.333Z,97083.61
2023-01-09T11:13:43.915Z,97080.77
2023-01-09T11:16:10.989Z,97080.92
2023-01-09T11:18:50.050Z,97075.80
2023-01-09T11:21:38.565Z,97080.52
2023-01-09T11:24:25.909Z,97082.64
2023-01-09T11:27:12.898Z,97084.98
2023-01-09T11:29:44.208Z,97078.73
2023-01-09T11:32:23.738Z,97081.04
2023-01-09T11:34:50.849Z,97086.46
2023-01-09T11:37:29.991Z,97080.79
2023-01-09T11:39:59.175Z,97077.23
2023-01-09T11:42:47.730Z,97077.64
2023-01-09T11:45:23.894Z,97079.67
2023-01-09T11:47:51.248Z,97075.11
2023-01-09T11:50:24.419Z,97071.68
2023-01-09T11:53:15.610Z,97071.73
2023-01-09T11:55:43.510Z,97072.15
2023-01-09T11:58:17.736Z,97068.14
2023-01-09T12:01:03.172Z,97067.13
2023-01-09T12:03:49.171Z,97063.25
2023-01-09T12:06:26.689Z,97064.08
2023-01-09T12:09:05.580Z,97058.08
2023-01-09T12:12:02.107Z,97059.02
2023-01-09T12:14:31.915Z,97053.35
2023-01-09T12:17:07.869Z,97055.77
2023-01-09T12:20:03.502Z,97057.60
2023-01-09T12:22:57.809Z,97063.88
2023-01-09T12:25:35.282Z,97069.30
2023-01-09T12:28:33.838Z,97072.44
2023-01-09T12:31:22.859Z,97065.41
2023-01-09T12:34:08.996Z,97058.36
2023-01-09T12:36:54.213Z,97053.75
2023-01-09T12:39:47.648Z,97051.77
2023-01-09T12:42:44.259Z,97051.84
2023-01-09T12:45:32.490Z,97049.64
2023-01-09T12:48:17.879Z,97040.94
2023-01-09T12:51:10.098Z,97040.57
2023-01-09T12:53:56.293Z,97040.98
2023-01-09T12:56:32.788Z,97038.52
2023-01-09T12:59:32.624Z,97041.11
2023-01-09T13:02:24.431Z,97046.10
2023-01-09T13:05:02.954Z,97050.42
2023-01-09T13:07:41.034Z,97056.80
2023-01-09T13:10:24.255Z,97068.08
2023-01-09T13:12:53.477Z,97078.22
2023-01-09T13:15:28.212Z,97087.52
2023-01-09T13:18:22.211Z,97098.17
2023-01-09T13:20:57.365Z,97102.56
2023-01-09T13:23:27.569Z,97104.80
2023-01-09T13:26:02.367Z,97105.27
2023-01-09T13:28:36.767Z,97109.73
2023-01-09T13:31:43.623Z,97111.04
2023-01-09T13:34:21.748Z,97114.13
2023-01-09T13:36:56.008Z,97114.72
2023-01-09T13:39:24.885Z,97115.96
2023-01-09T13:42:24.070Z,97118.56
2023-01-09T13:44:57.119Z,97118.21
2023-01-09T13:47:28.283Z,97118.64
2023-01-09T13:50:02.479Z,97121.64
2023-01-09T13:52:43.246Z,97123.85
2023-01-09T13:55:15.412Z,97128.69
2023-01-09T13:58:15.938Z,97134.71
2023-01-09T14:00:48.832Z,97143.58
2023-01-09T14:03:38.620Z,97154.45
2023-01-09T14:06:16.943Z,97162.46
2023-01-09T14:08:45.909Z,97168.80
2023-01-09T14:11:20.495Z,97173.27
2023-01-09T14:13:55.936Z,97178.50
2023-01-09T14:16:25.712Z,97192.04
2023-01-09T14:19:00.460Z,97194.92
2023-01-09T14:21:44.459Z,97192.52
2023-01-09T14:24:20.609Z,97189.96
2023-01-09T14:26:50.269Z,97194.93
2023-01-09T14:29:29.937Z,97199.67
2023-01-09T14:32:21.973Z,97202.04
2023-01-09T14:34:54.844Z,97202.10
2023-01-09T14:37:22.734Z,97205.45
2023-01-09T14:39:51.973Z,97205.05
2023-01-09T14:42:25.105Z,97195.41
2023-01-09T14:45:31.014Z,97182.20
2023-01-09T14:48:06.296Z,97181.02
2023-01-09T14:50:51.186Z,97194.40
2023-01-09T14:53:34.688Z,97200.91
2023-01-09T14:56:06.891Z,97202.34
2023-01-09T14:58:37.826Z,97204.66
2023-01-09T15:01:10.993Z,97207.23
2023-01-09T15:03:41.203Z,97211.11
2023-01-09T15:06:20.613Z,97207.61
2023-01-09T15:08:56.897Z,97214.14
2023-01-09T15:11:24.864Z,97213.81
2023-01-09T15:13:54.635Z,97213.55
2023-01-09T15:16:25.106Z,97215.77
2023-01-09T15:19:00.462Z,97222.58
2023-01-09T15:21:33.418Z,97230.65
2023-01-09T15:24:18.996Z,97238.02
2023-01-09T15:26:53.026Z,97238.51
2023-01-09T15:29:20.951Z,97238.51
2023-01-09T15:32:13.212Z,97234.86
2023-01-09T15:34:43.840Z,97247.38
2023-01-09T15:37:28.766Z,97254.73
2023-01-09T15:39:58.383Z,97256.84
2023-01-09T15:42:47.770Z,97260.73
2023-01-09T15:45:28.142Z,97265.27
2023-01-09T15:48:14.334Z,97262.89
2023-01-09T15:50:42.770Z,97264.47
2023-01-09T15:53:18.731Z,97272.22
2023-01-09T15:55:49.794Z,97271.19
2023-01-09T15:58:30.469Z,97278.70
2023-01-09T16:01:01.923Z,97277.15
2023-01-09T16:03:29.825Z,97277.23
2023-01-09T16:06:05.961Z,97280.84
2023-01-09T16:08:43.001Z,97277.14
2023-01-09T16:11:31.725Z,97281.42
2023-01-09T16:14:25.488Z,97284.83
2023-01-09T16:16:54.663Z,97282.28
2023-01-09T16:19:52.849Z,97283.14
2023-01-09T16:22:26.104Z,97281.93
2023-01-09T16:24:55.270Z,97285.23
2023-01-09T16:27:30.383Z,97290.62
2023-01-09T16:30:03.008Z,97297.34
2023-01-09T16:32:33.782Z,97297.95
2023-01-09T16:35:07.998Z,97301.45
2023-01-09T16:37:36.682Z,97301.95
2023-01-09T16:40:18.832Z,97308.91
2023-01-09T16:43:02.060Z,97306.33
2023-01-09T16:45:33.811Z,97310.38
2023-01-09T16:48:03.248Z,97317.08
2023-01-09T16:50:30.663Z,97315.31
2023-01-09T16:53:00.166Z,97318.52
2023-01-09T16:55:27.331Z,97316.88
2023-01-09T16:57:55.588Z,97326.10
2023-01-09T17:00:22.905Z,97327.38
2023-01-09T17:02:50.259Z,97338.21
2023-01-09T17:05:17.242Z,97344.97
2023-01-09T17:07:44.847Z,97347.11
2023-01-09T17:10:23.255Z,97343.39
2023-01-09T17:12:50.225Z,97347.36
2023-01-09T17:15:17.569Z,97347.42
2023-01-09T17:17:44.642Z,97346.75
2023-01-09T17:20:17.536Z,97343.14
2023-01-09T17:22:44.928Z,97349.67
2023-01-09T17:25:36.050Z,97352.55
2023-01-09T17:28:23.009Z,97356.15
2023-01-09T17:30:50.150Z,97360.26
2023-01-09T17:33:19.294Z,97361.60
2023-01-09T17:35:46.683Z,97365.02
2023-01-09T17:38:15.766Z,97368.71
2023-01-09T17:40:44.164Z,97371.38
2023-01-09T17:43:12.506Z,97371.63
2023-01-09T17:45:43.987Z,97374.83
2023-01-09T17:48:19.610Z,97373.20
2023-01-09T17:50:48.178Z,97373.77
2023-01-09T17:53:15.880Z,97380.05
2023-01-09T17:55:42.870Z,97381.56
2023-01-09T17:58:25.023Z,97380.66
2023-01-09T18:00:52.369Z,97381.71
2023-01-09T18:03:21.032Z,97376.34
2023-01-09T18:05:48.203Z,97373.26
2023-01-09T18:08:15.350Z,97379.74
2023-01-09T18:10:44.317Z,97379.58
2023-01-09T18:13:11.797Z,97375.95
2023-01-09T18:15:43.115Z,97378.91
2023-01-09T18:18:11.831Z,97382.23
2023-01-09T18:20:43.443Z,97388.04
2023-01-09T18:23:11.757Z,97393.42
2023-01-09T18:25:43.447Z,97398.34
2023-01-09T18:28:15.601Z,97399.85
2023-01-09T18:30:47.791Z,97400.96
2023-01-09T18:33:15.828Z,97400.04
2023-01-09T18:35:43.675Z,97410.35
2023-01-09T18:38:11.921Z,97410.40
2023-01-09T18:40:39.277Z,97412.94
2023-01-09T18:43:08.074Z,97419.79
2023-01-09T18:45:38.669Z,97421.88
2023-01-09T18:48:08.019Z,97428.06
2023-01-09T18:50:35.286Z,97426.02
2023-01-09T18:53:02.303Z,97426.50
2023-01-09T18:55:29.555Z,97426.64
2023-01-09T18:57:56.713Z,97428.77
2023-01-09T19:00:24.233Z,97426.02
2023-01-09T19:02:51.673Z,97428.48
2023-01-09T19:05:18.712Z,97427.77
2023-01-09T19:07:45.836Z,97422.39
2023-01-09T19:10:13.289Z,97423.80
2023-01-09T19:12:40.558Z,97426.65
2023-01-09T19:15:11.775Z,97418.13
2023-01-09T19:17:39.753Z,97418.16
2023-01-09T19:20:08.489Z,97420.25
2023-01-09T19:22:35.542Z,97420.05
2023-01-09T19:25:02.707Z,97423.99
2023-01-09T19:27:30.913Z,97424.70
2023-01-09T19:29:58.119Z,97421.45
2023-01-09T19:32:25.981Z,97423.50
2023-01-09T19:34:53.232Z,97429.93
2023-01-09T19:37:20.295Z,97431.32
2023-01-09T19:39:47.485Z,97437.63
2023-01-09T19:42:15.033Z,97434.11
2023-01-09T19:44:42.233Z,97438.80
2023-01-09T19:47:11.119Z,97439.54
2023-01-09T19:49:38.804Z,97438.75
2023-01-09T19:52:06.042Z,97441.94
2023-01-09T19:54:33.516Z,97445.02
2023-01-09T19:57:00.731Z,97446.17
2023-01-09T19:59:28.233Z,97446.91
2023-01-09T20:01:55.828Z,97444.99
2023-01-09T20:04:23.788Z,97447.02
2023-01-09T20:06:51.204Z,97449.73
2023-01-09T20:09:27.737Z,97456.98
2023-01-09T20:11:54.987Z,97451.13
2023-01-09T20:14:23.202Z,97459.83
2023-01-09T20:16:54.399Z,97463.58
2023-01-09T20:19:21.855Z,97464.95
2023-01-09T20:21:49.753Z,97466.17
2023-01-09T20:24:17.487Z,97461.20
2023-01-09T20:26:46.717Z,97468.52
2023-01-09T20:29:14.590Z,97465.73
2023-01-09T20:31:42.113Z,97471.91
2023-01-09T20:34:12.595Z,97467.96
2023-01-09T20:36:40.218Z,97469.35
2023-01-09T20:39:08.633Z,97464.92
2023-01-09T20:41:36.012Z,97464.87
2023-01-09T20:44:07.619Z,97467.66
2023-01-09T20:46:38.420Z,97470.70
2023-01-09T20:49:08.074Z,97474.97
2023-01-09T20:51:36.647Z,97478.34
2023-01-09T20:54:04.342Z,97479.33
2023-01-09T20:56:32.624Z,97481.56
2023-01-09T20:59:00.647Z,97488.21
2023-01-09T21:01:28.647Z,97487.56
2023-01-09T21:03:57.218Z,97489.23
2023-01-09T21:06:26.178Z,97486.02
2023-01-09T21:08:53.579Z,97484.67
2023-01-09T21:11:22.645Z,97480.60
2023-01-09T21:13:51.210Z,97480.05
2023-01-09T21:16:21.821Z,97483.14
2023-01-09T21:18:49.263Z,97483.55
2023-01-09T21:21:19.228Z,97487.15
2023-01-09T21:23:48.149Z,97488.98
2023-01-09T21:26:17.286Z,97485.77
2023-01-09T21:28:49.672Z,97486.34
2023-01-09T21:31:20.723Z,97489.48
2023-01-09T21:33:48.906Z,97494.34
2023-01-09T21:36:16.677Z,97504.50
2023-01-09T21:38:44.126Z,97507.20
2023-01-09T21:41:29.811Z,97515.60
2023-01-09T21:44:15.354Z,97514.96
2023-01-09T21:46:58.100Z,97521.05
2023-01-09T21:49:27.443Z,97518.09
2023-01-09T21:51:55.624Z,97522.65
2023-01-09T21:54:24.242Z,97526.40
2023-01-09T21:56:52.560Z,97532.27
2023-01-09T21:59:20.205Z,97539.07
2023-01-09T22:01:49.643Z,97543.73
2023-01-09T22:04:19.329Z,97544.45
2023-01-09T22:06:46.728Z,97547.50
2023-01-09T22:09:14.206Z,97549.84
2023-01-09T22:11:43.092Z,97544.14
2023-01-09T22:14:15.536Z,97549.30
2023-01-09T22:16:44.114Z,97552.89
2023-01-09T22:19:12.738Z,97553.01
2023-01-09T22:21:39.644Z,97559.59
2023-01-09T22:24:07.335Z,97562.45
2023-01-09T22:26:34.787Z,97563.90
2023-01-09T22:29:01.738Z,97570.30
2023-01-09T22:31:33.307Z,97569.30
2023-01-09T22:34:02.758Z,97566.20
2023-01-09T22:36:31.370Z,97572.24
2023-01-09T22:39:00.489Z,97569.77
2023-01-09T22:41:30.078Z,97565.18
2023-01-09T22:43:57.416Z,97567.55
2023-01-09T22:46:24.672Z,97565.85
2023-01-09T22:48:52.092Z,97568.99
2023-01-09T22:51:21.425Z,97568.70
2023-01-09T22:53:49.206Z,97568.39
2023-01-09T22:56:19.211Z,97567.55
2023-01-09T22:58:52.003Z,97574.94
2023-01-09T23:01:20.080Z,97570.89
2023-01-09T23:04:12.031Z,97574.41
2023-01-09T23:06:38.970Z,97570.77
2023-01-09T23:09:06.342Z,97569.30
2023-01-09T23:11:53.902Z,97571.01
2023-01-09T23:14:22.398Z,97573.19
2023-01-09T23:16:49.373Z,97579.30
2023-01-09T23:19:16.372Z,97585.93
2023-01-09T23:21:44.949Z,97588.60
2023-01-09T23:24:14.242Z,97587.64
2023-01-09T23:26:42.950Z,97585.02
2023-01-09T23:29:11.339Z,97581.48
2023-01-09T23:31:38.444Z,97583.98
2023-01-09T23:34:08.561Z,97590.45
2023-01-09T23:36:36.208Z,97594.21
2023-01-09T23:39:04.650Z,97593.71
2023-01-09T23:41:50.589Z,97587.58
2023-01-09T23:44:17.634Z,97588.05
2023-01-09T23:46:44.481Z,97586.05
2023-01-09T23:49:12.131Z,97590.95
2023-01-09T23:51:39.763Z,97594.80
2023-01-09T23:54:09.085Z,97596.89
2023-01-09T23:56:36.645Z,97598.42
2023-01-09T23:59:07.653Z,97603.00
